Main page
METAR-TAF:

METAR-TAF

Airports :

Kish International Airport

Kish, Iran

latitude: 26-31-36N, longitude: 053-58-54E, elevation: 30 m

Current weather observation

The report was made 25 minutes ago, at 06:00 UTC
Wind 10 kt from the East/Southeast
Temperature 23°C
Humidity 33%
Pressure 1020 hPa
Visibility 10 km or more
no clouds below 1500 m and no cumulonimbus

METAR: OIBK 220600Z 12010KT CAVOK 23/06 Q1020

Time: 09:55 (06:25 UTC)

Forecast

The report was made 35 minutes ago, at 05:50 UTC
Forecast valid from 22 at 06 UTC to 23 at 12 UTC
Wind 10 kt from the East
Visibility: 8000 m

TAF: OIBK 220550Z 2206/2312 08010KT 8000 NSC

Weather observations and forecasts of more than 4000 airports (METAR and TAF reports).

The available stations are represented by yellow and red dots on the map.

Hover mouse over dot to see the name of the station.

Then click to see weather observations and forecasts.

To change the map : click on the green buttons with a black cross to zoom in, on the green button with a dash to zoom out, or on the green arrows for adjacent maps.


METAR-TAF: